sensor_id;sensor_type;location;lat;lon;timestamp;P1;durP1;ratioP1;P2;durP2;ratioP2
63398;SDS011;49533;-34.520;150.798;2023-05-16T00:01:51;0.93;;;0.82;;
63398;SDS011;49533;-34.520;150.798;2023-05-16T00:04:29;1.20;;;1.20;;
63398;SDS011;49533;-34.520;150.798;2023-05-16T00:07:03;1.42;;;1.05;;
63398;SDS011;49533;-34.520;150.798;2023-05-16T00:09:34;0.90;;;0.90;;
63398;SDS011;49533;-34.520;150.798;2023-05-16T00:12:10;1.55;;;0.90;;
63398;SDS011;49533;-34.520;150.798;2023-05-16T00:14:37;1.33;;;1.23;;
63398;SDS011;49533;-34.520;150.798;2023-05-16T00:17:05;2.60;;;1.42;;
63398;SDS011;49533;-34.520;150.798;2023-05-16T00:19:36;0.95;;;0.85;;
63398;SDS011;49533;-34.520;150.798;2023-05-16T00:22:04;1.48;;;1.02;;
63398;SDS011;49533;-34.520;150.798;2023-05-16T00:24:33;0.77;;;0.75;;
63398;SDS011;49533;-34.520;150.798;2023-05-16T00:27:00;0.90;;;0.90;;
63398;SDS011;49533;-34.520;150.798;2023-05-16T00:29:29;1.10;;;1.00;;
63398;SDS011;49533;-34.520;150.798;2023-05-16T00:31:57;1.25;;;1.15;;
63398;SDS011;49533;-34.520;150.798;2023-05-16T00:34:24;1.77;;;1.17;;
63398;SDS011;49533;-34.520;150.798;2023-05-16T00:36:51;1.85;;;1.40;;
63398;SDS011;49533;-34.520;150.798;2023-05-16T00:39:18;1.10;;;1.10;;
63398;SDS011;49533;-34.520;150.798;2023-05-16T00:41:45;1.17;;;1.08;;
63398;SDS011;49533;-34.520;150.798;2023-05-16T00:44:12;2.22;;;1.10;;
63398;SDS011;49533;-34.520;150.798;2023-05-16T00:46:40;1.33;;;1.20;;
63398;SDS011;49533;-34.520;150.798;2023-05-16T00:49:07;1.05;;;0.95;;
63398;SDS011;49533;-34.520;150.798;2023-05-16T00:51:36;2.90;;;1.20;;
63398;SDS011;49533;-34.520;150.798;2023-05-16T00:54:04;1.08;;;1.08;;
63398;SDS011;49533;-34.520;150.798;2023-05-16T00:56:32;1.35;;;1.25;;
63398;SDS011;49533;-34.520;150.798;2023-05-16T00:58:59;1.90;;;1.17;;
63398;SDS011;49533;-34.520;150.798;2023-05-16T01:01:28;1.73;;;1.33;;
63398;SDS011;49533;-34.520;150.798;2023-05-16T01:03:55;1.38;;;1.27;;
63398;SDS011;49533;-34.520;150.798;2023-05-16T01:06:23;1.35;;;1.25;;
63398;SDS011;49533;-34.520;150.798;2023-05-16T01:08:50;1.58;;;1.48;;
63398;SDS011;49533;-34.520;150.798;2023-05-16T01:11:21;1.23;;;1.13;;
63398;SDS011;49533;-34.520;150.798;2023-05-16T01:14:02;1.33;;;1.20;;
63398;SDS011;49533;-34.520;150.798;2023-05-16T01:16:48;1.27;;;1.20;;
63398;SDS011;49533;-34.520;150.798;2023-05-16T01:19:31;1.60;;;1.30;;
63398;SDS011;49533;-34.520;150.798;2023-05-16T01:22:27;1.27;;;1.17;;
63398;SDS011;49533;-34.520;150.798;2023-05-16T01:28:08;1.23;;;1.13;;
63398;SDS011;49533;-34.520;150.798;2023-05-16T01:30:37;2.13;;;1.20;;
63398;SDS011;49533;-34.520;150.798;2023-05-16T01:33:07;1.25;;;1.15;;
63398;SDS011;49533;-34.520;150.798;2023-05-16T01:35:36;1.25;;;1.15;;
63398;SDS011;49533;-34.520;150.798;2023-05-16T01:38:15;1.75;;;1.40;;
63398;SDS011;49533;-34.520;150.798;2023-05-16T01:40:52;0.90;;;0.90;;
63398;SDS011;49533;-34.520;150.798;2023-05-16T01:43:30;1.65;;;1.02;;
63398;SDS011;49533;-34.520;150.798;2023-05-16T01:46:03;1.23;;;1.17;;
63398;SDS011;49533;-34.520;150.798;2023-05-16T01:48:38;1.00;;;1.00;;
63398;SDS011;49533;-34.520;150.798;2023-05-16T01:51:16;0.98;;;0.98;;
63398;SDS011;49533;-34.520;150.798;2023-05-16T01:53:46;1.55;;;1.45;;
63398;SDS011;49533;-34.520;150.798;2023-05-16T01:56:17;0.90;;;0.90;;
63398;SDS011;49533;-34.520;150.798;2023-05-16T01:58:45;1.00;;;0.93;;
63398;SDS011;49533;-34.520;150.798;2023-05-16T02:01:15;1.83;;;0.90;;
63398;SDS011;49533;-34.520;150.798;2023-05-16T02:03:42;1.20;;;1.10;;
63398;SDS011;49533;-34.520;150.798;2023-05-16T02:06:09;1.40;;;1.00;;
63398;SDS011;49533;-34.520;150.798;2023-05-16T02:08:36;1.08;;;1.08;;
63398;SDS011;49533;-34.520;150.798;2023-05-16T02:11:03;1.58;;;1.08;;
63398;SDS011;49533;-34.520;150.798;2023-05-16T02:13:30;0.70;;;0.70;;
63398;SDS011;49533;-34.520;150.798;2023-05-16T02:15:57;0.95;;;0.88;;
63398;SDS011;49533;-34.520;150.798;2023-05-16T02:18:25;1.25;;;1.10;;
63398;SDS011;49533;-34.520;150.798;2023-05-16T02:20:52;2.05;;;1.05;;
63398;SDS011;49533;-34.520;150.798;2023-05-16T02:23:20;0.73;;;0.73;;
63398;SDS011;49533;-34.520;150.798;2023-05-16T02:25:48;1.60;;;0.90;;
63398;SDS011;49533;-34.520;150.798;2023-05-16T02:28:17;1.00;;;1.00;;
63398;SDS011;49533;-34.520;150.798;2023-05-16T02:30:45;1.42;;;1.20;;
63398;SDS011;49533;-34.520;150.798;2023-05-16T02:33:21;0.80;;;0.80;;
63398;SDS011;49533;-34.520;150.798;2023-05-16T02:35:48;1.23;;;1.10;;
63398;SDS011;49533;-34.520;150.798;2023-05-16T02:38:15;1.08;;;1.02;;
63398;SDS011;49533;-34.520;150.798;2023-05-16T02:40:42;1.00;;;1.00;;
63398;SDS011;49533;-34.520;150.798;2023-05-16T02:43:09;1.58;;;1.20;;
63398;SDS011;49533;-34.520;150.798;2023-05-16T02:45:36;0.90;;;0.90;;
63398;SDS011;49533;-34.520;150.798;2023-05-16T02:48:04;1.10;;;1.00;;
63398;SDS011;49533;-34.520;150.798;2023-05-16T02:50:32;1.35;;;1.25;;
63398;SDS011;49533;-34.520;150.798;2023-05-16T02:53:00;1.02;;;1.02;;
63398;SDS011;49533;-34.520;150.798;2023-05-16T02:55:27;1.45;;;1.35;;
63398;SDS011;49533;-34.520;150.798;2023-05-16T02:57:55;1.17;;;1.17;;
63398;SDS011;49533;-34.520;150.798;2023-05-16T03:00:22;1.20;;;1.10;;
63398;SDS011;49533;-34.520;150.798;2023-05-16T03:02:49;1.38;;;1.08;;
63398;SDS011;49533;-34.520;150.798;2023-05-16T03:05:16;1.23;;;1.13;;
63398;SDS011;49533;-34.520;150.798;2023-05-16T03:07:43;2.40;;;1.23;;
63398;SDS011;49533;-34.520;150.798;2023-05-16T03:10:11;0.95;;;0.90;;
63398;SDS011;49533;-34.520;150.798;2023-05-16T03:12:38;0.95;;;0.90;;
63398;SDS011;49533;-34.520;150.798;2023-05-16T03:15:05;1.05;;;0.90;;
63398;SDS011;49533;-34.520;150.798;2023-05-16T03:17:33;1.35;;;1.08;;
63398;SDS011;49533;-34.520;150.798;2023-05-16T03:20:00;1.30;;;1.20;;
63398;SDS011;49533;-34.520;150.798;2023-05-16T03:22:29;1.63;;;1.20;;
63398;SDS011;49533;-34.520;150.798;2023-05-16T03:24:56;1.30;;;1.20;;
63398;SDS011;49533;-34.520;150.798;2023-05-16T03:27:23;1.40;;;1.30;;
63398;SDS011;49533;-34.520;150.798;2023-05-16T03:29:52;1.00;;;0.90;;
63398;SDS011;49533;-34.520;150.798;2023-05-16T03:32:19;1.40;;;1.05;;
63398;SDS011;49533;-34.520;150.798;2023-05-16T03:34:46;0.88;;;0.88;;
63398;SDS011;49533;-34.520;150.798;2023-05-16T03:37:13;0.88;;;0.88;;
63398;SDS011;49533;-34.520;150.798;2023-05-16T03:39:40;1.20;;;1.17;;
63398;SDS011;49533;-34.520;150.798;2023-05-16T03:42:10;1.63;;;1.52;;
63398;SDS011;49533;-34.520;150.798;2023-05-16T03:44:37;1.85;;;1.10;;
63398;SDS011;49533;-34.520;150.798;2023-05-16T03:47:04;1.10;;;1.10;;
63398;SDS011;49533;-34.520;150.798;2023-05-16T03:49:32;1.30;;;1.20;;
63398;SDS011;49533;-34.520;150.798;2023-05-16T03:52:02;0.98;;;0.98;;
63398;SDS011;49533;-34.520;150.798;2023-05-16T03:54:30;1.10;;;1.10;;
63398;SDS011;49533;-34.520;150.798;2023-05-16T03:56:57;1.40;;;1.30;;
63398;SDS011;49533;-34.520;150.798;2023-05-16T03:59:24;1.50;;;1.40;;
63398;SDS011;49533;-34.520;150.798;2023-05-16T04:01:51;1.05;;;0.90;;
63398;SDS011;49533;-34.520;150.798;2023-05-16T04:04:18;1.35;;;1.25;;
63398;SDS011;49533;-34.520;150.798;2023-05-16T04:06:45;1.30;;;1.20;;
63398;SDS011;49533;-34.520;150.798;2023-05-16T04:09:12;1.50;;;1.30;;
63398;SDS011;49533;-34.520;150.798;2023-05-16T04:11:40;1.42;;;1.33;;
63398;SDS011;49533;-34.520;150.798;2023-05-16T04:14:07;1.77;;;1.10;;
63398;SDS011;49533;-34.520;150.798;2023-05-16T04:16:34;1.20;;;1.10;;
63398;SDS011;49533;-34.520;150.798;2023-05-16T04:19:02;1.80;;;1.13;;
63398;SDS011;49533;-34.520;150.798;2023-05-16T04:21:29;1.00;;;0.98;;
63398;SDS011;49533;-34.520;150.798;2023-05-16T04:23:56;1.30;;;1.20;;
63398;SDS011;49533;-34.520;150.798;2023-05-16T04:26:23;1.23;;;1.05;;
63398;SDS011;49533;-34.520;150.798;2023-05-16T04:28:52;1.85;;;1.52;;
63398;SDS011;49533;-34.520;150.798;2023-05-16T04:31:20;1.70;;;1.30;;
63398;SDS011;49533;-34.520;150.798;2023-05-16T04:33:48;1.02;;;1.02;;
63398;SDS011;49533;-34.520;150.798;2023-05-16T04:36:15;1.33;;;1.20;;
63398;SDS011;49533;-34.520;150.798;2023-05-16T04:38:42;1.27;;;1.20;;
63398;SDS011;49533;-34.520;150.798;2023-05-16T04:41:11;1.50;;;1.23;;
63398;SDS011;49533;-34.520;150.798;2023-05-16T04:43:38;1.52;;;1.42;;
63398;SDS011;49533;-34.520;150.798;2023-05-16T04:46:06;1.27;;;1.17;;
63398;SDS011;49533;-34.520;150.798;2023-05-16T04:48:34;1.75;;;1.42;;
63398;SDS011;49533;-34.520;150.798;2023-05-16T04:51:01;2.05;;;1.50;;
63398;SDS011;49533;-34.520;150.798;2023-05-16T04:53:29;0.90;;;0.90;;
63398;SDS011;49533;-34.520;150.798;2023-05-16T04:55:56;1.50;;;1.30;;
63398;SDS011;49533;-34.520;150.798;2023-05-16T04:58:23;1.42;;;1.38;;
63398;SDS011;49533;-34.520;150.798;2023-05-16T05:00:51;1.73;;;1.20;;
63398;SDS011;49533;-34.520;150.798;2023-05-16T05:03:18;1.35;;;1.25;;
63398;SDS011;49533;-34.520;150.798;2023-05-16T05:05:45;1.50;;;1.40;;
63398;SDS011;49533;-34.520;150.798;2023-05-16T05:08:13;2.05;;;1.48;;
63398;SDS011;49533;-34.520;150.798;2023-05-16T05:10:41;1.60;;;1.35;;
63398;SDS011;49533;-34.520;150.798;2023-05-16T05:13:09;1.30;;;1.20;;
63398;SDS011;49533;-34.520;150.798;2023-05-16T05:15:37;1.20;;;1.17;;
63398;SDS011;49533;-34.520;150.798;2023-05-16T05:18:04;1.40;;;1.30;;
63398;SDS011;49533;-34.520;150.798;2023-05-16T05:20:31;2.35;;;1.30;;
63398;SDS011;49533;-34.520;150.798;2023-05-16T05:22:58;1.60;;;1.50;;
63398;SDS011;49533;-34.520;150.798;2023-05-16T05:25:25;1.75;;;1.65;;
63398;SDS011;49533;-34.520;150.798;2023-05-16T05:27:52;2.65;;;1.15;;
63398;SDS011;49533;-34.520;150.798;2023-05-16T05:30:20;1.50;;;1.40;;
63398;SDS011;49533;-34.520;150.798;2023-05-16T05:32:47;1.85;;;1.33;;
63398;SDS011;49533;-34.520;150.798;2023-05-16T05:35:14;1.25;;;1.17;;
63398;SDS011;49533;-34.520;150.798;2023-05-16T05:37:41;3.28;;;1.40;;
63398;SDS011;49533;-34.520;150.798;2023-05-16T05:40:08;1.40;;;1.30;;
63398;SDS011;49533;-34.520;150.798;2023-05-16T05:42:36;4.30;;;1.48;;
63398;SDS011;49533;-34.520;150.798;2023-05-16T05:45:03;2.55;;;1.27;;
63398;SDS011;49533;-34.520;150.798;2023-05-16T05:47:32;2.13;;;1.50;;
63398;SDS011;49533;-34.520;150.798;2023-05-16T05:49:59;3.70;;;1.70;;
63398;SDS011;49533;-34.520;150.798;2023-05-16T05:52:27;5.57;;;1.98;;
63398;SDS011;49533;-34.520;150.798;2023-05-16T05:54:54;11.95;;;1.70;;
63398;SDS011;49533;-34.520;150.798;2023-05-16T05:57:23;18.33;;;2.78;;
63398;SDS011;49533;-34.520;150.798;2023-05-16T05:59:51;5.43;;;1.88;;
63398;SDS011;49533;-34.520;150.798;2023-05-16T06:02:18;1.63;;;1.30;;
63398;SDS011;49533;-34.520;150.798;2023-05-16T06:04:46;3.80;;;1.90;;
63398;SDS011;49533;-34.520;150.798;2023-05-16T06:07:13;2.67;;;2.03;;
63398;SDS011;49533;-34.520;150.798;2023-05-16T06:09:41;10.60;;;1.92;;
63398;SDS011;49533;-34.520;150.798;2023-05-16T06:12:08;3.85;;;1.70;;
63398;SDS011;49533;-34.520;150.798;2023-05-16T06:14:35;4.82;;;1.65;;
63398;SDS011;49533;-34.520;150.798;2023-05-16T06:17:02;3.75;;;1.75;;
63398;SDS011;49533;-34.520;150.798;2023-05-16T06:19:30;4.93;;;1.42;;
63398;SDS011;49533;-34.520;150.798;2023-05-16T06:21:57;5.47;;;1.65;;
63398;SDS011;49533;-34.520;150.798;2023-05-16T06:24:24;4.18;;;2.05;;
63398;SDS011;49533;-34.520;150.798;2023-05-16T06:26:51;2.08;;;1.50;;
63398;SDS011;49533;-34.520;150.798;2023-05-16T06:29:18;4.45;;;1.67;;
63398;SDS011;49533;-34.520;150.798;2023-05-16T06:31:46;6.60;;;3.38;;
63398;SDS011;49533;-34.520;150.798;2023-05-16T06:34:13;8.77;;;7.60;;
63398;SDS011;49533;-34.520;150.798;2023-05-16T06:36:40;21.30;;;13.30;;
63398;SDS011;49533;-34.520;150.798;2023-05-16T06:39:08;38.53;;;12.35;;
63398;SDS011;49533;-34.520;150.798;2023-05-16T06:41:36;101.25;;;15.00;;
63398;SDS011;49533;-34.520;150.798;2023-05-16T06:44:03;68.72;;;14.23;;
63398;SDS011;49533;-34.520;150.798;2023-05-16T06:46:30;40.88;;;11.48;;
63398;SDS011;49533;-34.520;150.798;2023-05-16T06:48:58;37.42;;;12.00;;
63398;SDS011;49533;-34.520;150.798;2023-05-16T06:51:25;35.50;;;10.38;;
63398;SDS011;49533;-34.520;150.798;2023-05-16T06:53:52;32.53;;;10.30;;
63398;SDS011;49533;-34.520;150.798;2023-05-16T06:56:19;31.17;;;10.35;;
63398;SDS011;49533;-34.520;150.798;2023-05-16T06:58:46;30.35;;;9.15;;
63398;SDS011;49533;-34.520;150.798;2023-05-16T07:01:14;24.65;;;8.30;;
63398;SDS011;49533;-34.520;150.798;2023-05-16T07:03:41;23.20;;;8.15;;
63398;SDS011;49533;-34.520;150.798;2023-05-16T07:06:09;31.98;;;8.20;;
63398;SDS011;49533;-34.520;150.798;2023-05-16T07:08:36;29.20;;;7.30;;
63398;SDS011;49533;-34.520;150.798;2023-05-16T07:11:03;21.85;;;7.20;;
63398;SDS011;49533;-34.520;150.798;2023-05-16T07:13:30;15.88;;;6.25;;
63398;SDS011;49533;-34.520;150.798;2023-05-16T07:15:57;15.65;;;5.03;;
63398;SDS011;49533;-34.520;150.798;2023-05-16T07:18:24;18.65;;;5.70;;
63398;SDS011;49533;-34.520;150.798;2023-05-16T07:20:51;13.68;;;5.18;;
63398;SDS011;49533;-34.520;150.798;2023-05-16T07:23:19;11.38;;;5.07;;
63398;SDS011;49533;-34.520;150.798;2023-05-16T07:25:46;11.90;;;4.07;;
63398;SDS011;49533;-34.520;150.798;2023-05-16T07:28:14;6.15;;;3.00;;
63398;SDS011;49533;-34.520;150.798;2023-05-16T07:30:41;5.40;;;4.18;;
63398;SDS011;49533;-34.520;150.798;2023-05-16T07:33:09;7.45;;;4.00;;
63398;SDS011;49533;-34.520;150.798;2023-05-16T07:35:36;6.75;;;3.45;;
63398;SDS011;49533;-34.520;150.798;2023-05-16T07:38:04;7.50;;;3.67;;
63398;SDS011;49533;-34.520;150.798;2023-05-16T07:40:31;6.22;;;2.97;;
63398;SDS011;49533;-34.520;150.798;2023-05-16T07:42:58;5.90;;;3.10;;
63398;SDS011;49533;-34.520;150.798;2023-05-16T07:45:25;3.78;;;2.97;;
63398;SDS011;49533;-34.520;150.798;2023-05-16T07:47:52;3.30;;;2.83;;
63398;SDS011;49533;-34.520;150.798;2023-05-16T07:50:19;4.07;;;3.42;;
63398;SDS011;49533;-34.520;150.798;2023-05-16T07:52:46;3.97;;;2.85;;
63398;SDS011;49533;-34.520;150.798;2023-05-16T07:55:13;7.55;;;3.30;;
63398;SDS011;49533;-34.520;150.798;2023-05-16T07:57:41;3.33;;;2.40;;
63398;SDS011;49533;-34.520;150.798;2023-05-16T08:00:08;3.47;;;2.50;;
63398;SDS011;49533;-34.520;150.798;2023-05-16T08:02:36;2.53;;;2.33;;
63398;SDS011;49533;-34.520;150.798;2023-05-16T08:05:03;2.75;;;2.38;;
63398;SDS011;49533;-34.520;150.798;2023-05-16T08:07:31;2.40;;;2.20;;
63398;SDS011;49533;-34.520;150.798;2023-05-16T08:09:58;3.05;;;2.47;;
63398;SDS011;49533;-34.520;150.798;2023-05-16T08:12:25;2.30;;;2.10;;
63398;SDS011;49533;-34.520;150.798;2023-05-16T08:14:52;2.30;;;2.10;;
63398;SDS011;49533;-34.520;150.798;2023-05-16T08:17:19;3.55;;;2.38;;
63398;SDS011;49533;-34.520;150.798;2023-05-16T08:19:46;2.35;;;2.15;;
63398;SDS011;49533;-34.520;150.798;2023-05-16T08:22:14;2.53;;;2.33;;
63398;SDS011;49533;-34.520;150.798;2023-05-16T08:24:41;2.95;;;2.17;;
63398;SDS011;49533;-34.520;150.798;2023-05-16T08:27:08;2.22;;;2.13;;
63398;SDS011;49533;-34.520;150.798;2023-05-16T08:29:36;2.17;;;1.98;;
63398;SDS011;49533;-34.520;150.798;2023-05-16T08:32:04;2.25;;;2.05;;
63398;SDS011;49533;-34.520;150.798;2023-05-16T08:34:32;2.17;;;2.03;;
63398;SDS011;49533;-34.520;150.798;2023-05-16T08:36:59;2.28;;;2.08;;
63398;SDS011;49533;-34.520;150.798;2023-05-16T08:39:37;3.90;;;2.75;;
63398;SDS011;49533;-34.520;150.798;2023-05-16T08:42:04;2.70;;;2.50;;
63398;SDS011;49533;-34.520;150.798;2023-05-16T08:44:33;2.83;;;2.45;;
63398;SDS011;49533;-34.520;150.798;2023-05-16T08:47:03;3.30;;;2.25;;
63398;SDS011;49533;-34.520;150.798;2023-05-16T08:49:38;2.70;;;2.50;;
63398;SDS011;49533;-34.520;150.798;2023-05-16T08:52:07;2.40;;;2.20;;
63398;SDS011;49533;-34.520;150.798;2023-05-16T08:54:35;2.97;;;2.13;;
63398;SDS011;49533;-34.520;150.798;2023-05-16T08:57:03;2.88;;;1.95;;
63398;SDS011;49533;-34.520;150.798;2023-05-16T08:59:31;3.53;;;2.00;;
63398;SDS011;49533;-34.520;150.798;2023-05-16T09:02:00;2.35;;;1.92;;
63398;SDS011;49533;-34.520;150.798;2023-05-16T09:04:27;2.75;;;2.22;;
63398;SDS011;49533;-34.520;150.798;2023-05-16T09:06:55;2.15;;;1.95;;
63398;SDS011;49533;-34.520;150.798;2023-05-16T09:09:22;2.42;;;1.80;;
63398;SDS011;49533;-34.520;150.798;2023-05-16T09:11:49;2.72;;;1.80;;
63398;SDS011;49533;-34.520;150.798;2023-05-16T09:14:17;1.95;;;1.67;;
63398;SDS011;49533;-34.520;150.798;2023-05-16T09:16:44;4.13;;;2.20;;
63398;SDS011;49533;-34.520;150.798;2023-05-16T09:19:31;2.75;;;2.35;;
63398;SDS011;49533;-34.520;150.798;2023-05-16T09:22:07;3.20;;;2.33;;
63398;SDS011;49533;-34.520;150.798;2023-05-16T09:24:42;4.20;;;2.83;;
63398;SDS011;49533;-34.520;150.798;2023-05-16T09:27:11;2.67;;;2.28;;
63398;SDS011;49533;-34.520;150.798;2023-05-16T09:29:40;2.13;;;1.98;;
63398;SDS011;49533;-34.520;150.798;2023-05-16T09:32:13;2.95;;;2.25;;
63398;SDS011;49533;-34.520;150.798;2023-05-16T09:34:42;3.08;;;2.33;;
63398;SDS011;49533;-34.520;150.798;2023-05-16T09:37:13;2.67;;;2.40;;
63398;SDS011;49533;-34.520;150.798;2023-05-16T09:39:44;3.13;;;2.47;;
63398;SDS011;49533;-34.520;150.798;2023-05-16T09:42:14;2.83;;;2.30;;
63398;SDS011;49533;-34.520;150.798;2023-05-16T09:44:46;3.03;;;1.98;;
63398;SDS011;49533;-34.520;150.798;2023-05-16T09:47:16;2.20;;;2.05;;
63398;SDS011;49533;-34.520;150.798;2023-05-16T09:49:45;2.50;;;2.30;;
63398;SDS011;49533;-34.520;150.798;2023-05-16T09:52:16;3.33;;;2.13;;
63398;SDS011;49533;-34.520;150.798;2023-05-16T09:54:45;2.00;;;1.90;;
63398;SDS011;49533;-34.520;150.798;2023-05-16T09:57:18;2.22;;;2.03;;
63398;SDS011;49533;-34.520;150.798;2023-05-16T09:59:48;2.65;;;1.83;;
63398;SDS011;49533;-34.520;150.798;2023-05-16T10:02:15;4.20;;;2.45;;
63398;SDS011;49533;-34.520;150.798;2023-05-16T10:04:43;2.90;;;2.15;;
63398;SDS011;49533;-34.520;150.798;2023-05-16T10:07:10;3.65;;;2.35;;
63398;SDS011;49533;-34.520;150.798;2023-05-16T10:09:38;2.78;;;2.10;;
63398;SDS011;49533;-34.520;150.798;2023-05-16T10:12:07;2.85;;;2.50;;
63398;SDS011;49533;-34.520;150.798;2023-05-16T10:14:38;2.17;;;1.90;;
63398;SDS011;49533;-34.520;150.798;2023-05-16T10:17:07;2.45;;;2.10;;
63398;SDS011;49533;-34.520;150.798;2023-05-16T10:19:40;3.28;;;2.17;;
63398;SDS011;49533;-34.520;150.798;2023-05-16T10:22:08;2.20;;;1.92;;
63398;SDS011;49533;-34.520;150.798;2023-05-16T10:24:42;3.17;;;2.38;;
63398;SDS011;49533;-34.520;150.798;2023-05-16T10:27:17;3.30;;;2.75;;
63398;SDS011;49533;-34.520;150.798;2023-05-16T10:29:45;2.97;;;2.28;;
63398;SDS011;49533;-34.520;150.798;2023-05-16T10:32:12;2.58;;;1.67;;
63398;SDS011;49533;-34.520;150.798;2023-05-16T10:34:40;2.65;;;1.90;;
63398;SDS011;49533;-34.520;150.798;2023-05-16T10:37:08;2.17;;;1.80;;
63398;SDS011;49533;-34.520;150.798;2023-05-16T10:39:37;2.30;;;2.10;;
63398;SDS011;49533;-34.520;150.798;2023-05-16T10:42:04;2.35;;;2.13;;
63398;SDS011;49533;-34.520;150.798;2023-05-16T10:44:32;3.70;;;2.40;;
63398;SDS011;49533;-34.520;150.798;2023-05-16T10:46:59;1.77;;;1.65;;
63398;SDS011;49533;-34.520;150.798;2023-05-16T10:49:29;2.10;;;1.60;;
63398;SDS011;49533;-34.520;150.798;2023-05-16T10:54:33;1.90;;;1.77;;
63398;SDS011;49533;-34.520;150.798;2023-05-16T10:57:03;2.92;;;2.03;;
63398;SDS011;49533;-34.520;150.798;2023-05-16T10:59:38;4.28;;;2.10;;
63398;SDS011;49533;-34.520;150.798;2023-05-16T11:04:48;4.00;;;2.13;;
63398;SDS011;49533;-34.520;150.798;2023-05-16T11:07:16;4.28;;;2.53;;
63398;SDS011;49533;-34.520;150.798;2023-05-16T11:09:52;5.03;;;2.75;;
63398;SDS011;49533;-34.520;150.798;2023-05-16T11:12:42;4.28;;;2.45;;
63398;SDS011;49533;-34.520;150.798;2023-05-16T11:15:25;4.55;;;2.63;;
63398;SDS011;49533;-34.520;150.798;2023-05-16T11:18:02;5.75;;;2.40;;
63398;SDS011;49533;-34.520;150.798;2023-05-16T11:20:32;4.70;;;2.38;;
63398;SDS011;49533;-34.520;150.798;2023-05-16T11:25:47;5.60;;;2.25;;
63398;SDS011;49533;-34.520;150.798;2023-05-16T11:28:20;5.38;;;2.42;;
63398;SDS011;49533;-34.520;150.798;2023-05-16T11:30:49;3.25;;;2.30;;
63398;SDS011;49533;-34.520;150.798;2023-05-16T11:33:20;5.43;;;2.53;;
63398;SDS011;49533;-34.520;150.798;2023-05-16T11:36:00;5.45;;;2.50;;
63398;SDS011;49533;-34.520;150.798;2023-05-16T11:38:30;4.35;;;2.35;;
63398;SDS011;49533;-34.520;150.798;2023-05-16T11:41:03;5.50;;;2.17;;
63398;SDS011;49533;-34.520;150.798;2023-05-16T11:43:36;3.78;;;2.30;;
63398;SDS011;49533;-34.520;150.798;2023-05-16T11:46:10;3.75;;;2.22;;
63398;SDS011;49533;-34.520;150.798;2023-05-16T11:48:38;3.08;;;1.75;;
63398;SDS011;49533;-34.520;150.798;2023-05-16T11:51:07;2.72;;;1.50;;
63398;SDS011;49533;-34.520;150.798;2023-05-16T11:53:35;2.33;;;1.67;;
63398;SDS011;49533;-34.520;150.798;2023-05-16T11:56:03;3.05;;;1.67;;
63398;SDS011;49533;-34.520;150.798;2023-05-16T11:58:32;4.13;;;1.92;;
63398;SDS011;49533;-34.520;150.798;2023-05-16T12:00:59;4.40;;;1.50;;
63398;SDS011;49533;-34.520;150.798;2023-05-16T12:03:30;4.20;;;2.08;;
63398;SDS011;49533;-34.520;150.798;2023-05-16T12:05:59;3.28;;;1.65;;
63398;SDS011;49533;-34.520;150.798;2023-05-16T12:08:26;2.55;;;1.83;;
63398;SDS011;49533;-34.520;150.798;2023-05-16T12:10:54;2.47;;;1.60;;
63398;SDS011;49533;-34.520;150.798;2023-05-16T12:13:22;6.00;;;1.77;;
63398;SDS011;49533;-34.520;150.798;2023-05-16T12:15:50;3.83;;;1.92;;
63398;SDS011;49533;-34.520;150.798;2023-05-16T12:18:18;1.55;;;1.23;;
63398;SDS011;49533;-34.520;150.798;2023-05-16T12:20:46;2.65;;;1.80;;
63398;SDS011;49533;-34.520;150.798;2023-05-16T12:23:13;2.35;;;1.45;;
63398;SDS011;49533;-34.520;150.798;2023-05-16T12:25:44;2.75;;;1.10;;
63398;SDS011;49533;-34.520;150.798;2023-05-16T12:28:13;2.58;;;1.40;;
63398;SDS011;49533;-34.520;150.798;2023-05-16T12:30:41;1.60;;;1.30;;
63398;SDS011;49533;-34.520;150.798;2023-05-16T12:33:11;3.20;;;1.25;;
63398;SDS011;49533;-34.520;150.798;2023-05-16T12:35:40;2.55;;;1.60;;
63398;SDS011;49533;-34.520;150.798;2023-05-16T12:38:10;2.10;;;1.30;;
63398;SDS011;49533;-34.520;150.798;2023-05-16T12:40:39;4.22;;;1.42;;
63398;SDS011;49533;-34.520;150.798;2023-05-16T12:43:12;2.60;;;1.48;;
63398;SDS011;49533;-34.520;150.798;2023-05-16T12:45:42;1.90;;;1.25;;
63398;SDS011;49533;-34.520;150.798;2023-05-16T12:48:19;2.65;;;1.13;;
63398;SDS011;49533;-34.520;150.798;2023-05-16T12:50:47;3.65;;;1.48;;
63398;SDS011;49533;-34.520;150.798;2023-05-16T12:53:16;2.88;;;1.33;;
63398;SDS011;49533;-34.520;150.798;2023-05-16T12:55:44;1.48;;;1.20;;
63398;SDS011;49533;-34.520;150.798;2023-05-16T12:58:14;2.65;;;0.98;;
63398;SDS011;49533;-34.520;150.798;2023-05-16T13:00:42;2.58;;;1.17;;
63398;SDS011;49533;-34.520;150.798;2023-05-16T13:03:09;3.22;;;1.40;;
63398;SDS011;49533;-34.520;150.798;2023-05-16T13:05:37;4.07;;;1.58;;
63398;SDS011;49533;-34.520;150.798;2023-05-16T13:08:04;3.67;;;1.35;;
63398;SDS011;49533;-34.520;150.798;2023-05-16T13:10:31;5.10;;;1.63;;
63398;SDS011;49533;-34.520;150.798;2023-05-16T13:12:59;5.10;;;1.30;;
63398;SDS011;49533;-34.520;150.798;2023-05-16T13:15:27;1.92;;;1.00;;
63398;SDS011;49533;-34.520;150.798;2023-05-16T13:17:54;6.18;;;1.95;;
63398;SDS011;49533;-34.520;150.798;2023-05-16T13:20:21;3.45;;;1.40;;
63398;SDS011;49533;-34.520;150.798;2023-05-16T13:22:48;4.30;;;1.48;;
63398;SDS011;49533;-34.520;150.798;2023-05-16T13:25:15;2.15;;;1.35;;
63398;SDS011;49533;-34.520;150.798;2023-05-16T13:27:42;4.07;;;1.88;;
63398;SDS011;49533;-34.520;150.798;2023-05-16T13:30:09;4.05;;;1.40;;
63398;SDS011;49533;-34.520;150.798;2023-05-16T13:32:36;4.30;;;1.35;;
63398;SDS011;49533;-34.520;150.798;2023-05-16T13:35:04;3.75;;;1.50;;
63398;SDS011;49533;-34.520;150.798;2023-05-16T13:37:31;5.28;;;1.50;;
63398;SDS011;49533;-34.520;150.798;2023-05-16T13:39:59;2.80;;;1.27;;
63398;SDS011;49533;-34.520;150.798;2023-05-16T13:42:26;5.07;;;1.80;;
63398;SDS011;49533;-34.520;150.798;2023-05-16T13:44:53;4.80;;;1.70;;
63398;SDS011;49533;-34.520;150.798;2023-05-16T13:47:21;3.50;;;1.83;;
63398;SDS011;49533;-34.520;150.798;2023-05-16T13:49:48;5.97;;;1.75;;
63398;SDS011;49533;-34.520;150.798;2023-05-16T13:52:15;6.43;;;2.00;;
63398;SDS011;49533;-34.520;150.798;2023-05-16T13:54:42;3.47;;;1.50;;
63398;SDS011;49533;-34.520;150.798;2023-05-16T13:57:09;4.20;;;1.60;;
63398;SDS011;49533;-34.520;150.798;2023-05-16T13:59:36;4.43;;;1.58;;
63398;SDS011;49533;-34.520;150.798;2023-05-16T14:02:04;4.90;;;1.77;;
63398;SDS011;49533;-34.520;150.798;2023-05-16T14:04:31;4.07;;;2.00;;
63398;SDS011;49533;-34.520;150.798;2023-05-16T14:06:58;4.10;;;1.90;;
63398;SDS011;49533;-34.520;150.798;2023-05-16T14:09:25;5.75;;;2.08;;
63398;SDS011;49533;-34.520;150.798;2023-05-16T14:11:52;4.35;;;2.08;;
63398;SDS011;49533;-34.520;150.798;2023-05-16T14:14:19;6.70;;;2.30;;
63398;SDS011;49533;-34.520;150.798;2023-05-16T14:16:46;5.03;;;1.70;;
63398;SDS011;49533;-34.520;150.798;2023-05-16T14:19:14;5.25;;;1.90;;
63398;SDS011;49533;-34.520;150.798;2023-05-16T14:21:41;5.57;;;1.90;;
63398;SDS011;49533;-34.520;150.798;2023-05-16T14:24:08;6.63;;;1.77;;
63398;SDS011;49533;-34.520;150.798;2023-05-16T14:26:36;5.03;;;1.98;;
63398;SDS011;49533;-34.520;150.798;2023-05-16T14:29:03;6.18;;;2.40;;